Time;durP1;ratioP1;P1;durP2;ratioP2;P2;SDS_P1;SDS_P2;PMS_P1;PMS_P2;Temp;Humidity;BMP_temperature;BMP_pressure;BME280_temperature;BME280_humidity;BME280_pressure;Samples;Min_cycle;Max_cycle;Signal;HPM_P1;HPM_P2
2021/06/01 00:00:36;;;;;;;3.83;2.10;;;;;;;21.56;44.51;101803.81;5038282;28;20758;-56
2021/06/01 00:03:01;;;;;;;3.55;2.10;;;;;;;21.56;44.32;101800.31;5037815;28;20040;-57
2021/06/01 00:05:27;;;;;;;3.80;2.08;;;;;;;21.55;44.59;101807.44;5037308;28;20045;-56
2021/06/01 00:07:52;;;;;;;4.22;2.25;;;;;;;21.56;44.66;101800.31;5038355;28;20036;-55
2021/06/01 00:10:17;;;;;;;3.42;2.00;;;;;;;21.54;44.46;101796.97;5037899;28;20553;-56
2021/06/01 00:12:43;;;;;;;4.65;2.10;;;;;;;21.54;44.25;101800.44;5037557;28;20021;-56
2021/06/01 00:15:09;;;;;;;3.75;2.00;;;;;;;21.50;44.33;101791.03;5037845;28;20126;-57
2021/06/01 00:17:35;;;;;;;4.13;1.90;;;;;;;21.52;44.27;101788.25;5038156;28;20029;-55
2021/06/01 00:20:03;;;;;;;3.30;1.80;;;;;;;21.53;44.08;101798.75;5037303;28;20469;-55
2021/06/01 00:22:29;;;;;;;4.40;2.10;;;;;;;21.50;44.17;101793.69;5038012;28;20029;-55
2021/06/01 00:24:54;;;;;;;5.33;1.90;;;;;;;21.52;44.44;101796.22;5037843;28;20440;-55
2021/06/01 00:27:19;;;;;;;3.08;1.85;;;;;;;21.50;43.75;101785.72;5036989;28;20267;-53
2021/06/01 00:29:44;;;;;;;3.85;2.00;;;;;;;21.52;44.23;101793.56;5037935;28;20034;-55
2021/06/01 00:32:11;;;;;;;3.83;1.90;;;;;;;21.51;43.96;101789.25;5037140;28;20041;-56
2021/06/01 00:34:36;;;;;;;3.50;1.85;;;;;;;21.50;43.87;101784.91;5037382;28;20270;-55
2021/06/01 00:37:02;;;;;;;3.70;1.80;;;;;;;21.51;43.71;101789.25;5037851;28;20346;-55
2021/06/01 00:39:27;;;;;;;3.90;2.00;;;;;;;21.50;43.65;101790.22;5037961;28;20449;-53
2021/06/01 00:41:52;;;;;;;3.08;1.60;;;;;;;21.49;43.65;101785.84;5037214;28;20024;-56
2021/06/01 00:44:18;;;;;;;3.80;1.90;;;;;;;21.49;43.62;101788.50;5037570;28;20017;-54
2021/06/01 00:46:43;;;;;;;3.10;1.75;;;;;;;21.48;43.46;101784.16;5036889;28;20337;-56
2021/06/01 00:49:08;;;;;;;3.90;1.90;;;;;;;21.47;43.33;101787.75;5037778;28;20366;-55
2021/06/01 00:51:34;;;;;;;3.90;1.90;;;;;;;21.46;43.46;101781.63;5035016;28;20022;-56
2021/06/01 00:54:02;;;;;;;3.45;1.75;;;;;;;21.47;43.60;101785.13;5033906;28;20400;-56
2021/06/01 00:56:27;;;;;;;3.83;2.00;;;;;;;21.46;43.34;101786.06;5034775;28;20164;-55
2021/06/01 00:58:52;;;;;;;3.75;1.65;;;;;;;21.45;43.23;101784.41;5034233;28;20374;-56
2021/06/01 01:01:19;;;;;;;3.33;1.77;;;;;;;21.41;43.18;101778.47;5033343;28;20025;-54
2021/06/01 01:03:45;;;;;;;3.70;1.83;;;;;;;21.43;43.14;101773.91;5034685;28;20275;-56
2021/06/01 01:06:46;;;;;;;3.78;1.92;;;;;;;21.44;43.39;101780.06;5033994;28;20060;-56
2021/06/01 01:09:14;;;;;;;4.47;1.60;;;;;;;21.44;43.25;101788.00;5033380;28;20032;-55
2021/06/01 01:11:46;;;;;;;3.20;1.90;;;;;;;21.43;43.07;101781.00;5034428;28;20388;-56
2021/06/01 01:14:27;;;;;;;3.10;1.65;;;;;;;21.39;43.17;101777.78;5034174;28;20025;-56
2021/06/01 01:17:06;;;;;;;3.63;1.90;;;;;;;21.35;42.93;101763.09;5033701;28;20036;-56
2021/06/01 01:20:01;;;;;;;3.30;1.80;;;;;;;21.42;42.96;101782.00;5034270;28;20025;-55
2021/06/01 01:22:27;;;;;;;;;;;;;;;21.41;42.91;101782.94;5034114;28;20037;-56
2021/06/01 01:25:07;;;;;;;3.45;1.60;;;;;;;21.41;43.02;101785.59;5034194;28;20000;-55
2021/06/01 01:27:38;;;;;;;3.65;1.70;;;;;;;21.40;42.81;101791.91;5034361;28;20038;-54
2021/06/01 01:30:07;;;;;;;3.38;1.60;;;;;;;21.32;43.01;101766.81;5033064;28;20384;-55
2021/06/01 01:32:45;;;;;;;3.60;1.70;;;;;;;21.38;42.66;101782.25;5033894;28;20118;-55
2021/06/01 01:35:14;;;;;;;3.33;1.63;;;;;;;21.39;42.60;101783.06;5033682;28;20064;-54
2021/06/01 01:37:40;;;;;;;3.42;1.63;;;;;;;21.34;42.74;101778.16;5033411;28;20049;-55
2021/06/01 01:40:09;;;;;;;3.30;1.65;;;;;;;21.37;42.75;101783.19;5033523;28;20462;-56
2021/06/01 01:42:46;;;;;;;5.50;1.60;;;;;;;21.37;42.83;101783.19;5033820;28;20033;-56
2021/06/01 01:45:25;;;;;;;3.08;1.70;;;;;;;21.35;42.65;101771.88;5033118;28;20024;-56
2021/06/01 01:50:39;;;;;;;3.30;1.60;;;;;;;21.32;42.66;101769.47;5033153;28;20499;-57
2021/06/01 01:53:05;;;;;;;3.88;1.70;;;;;;;21.36;42.58;101772.72;5033445;28;20440;-55
2021/06/01 01:55:30;;;;;;;3.58;1.73;;;;;;;21.35;42.72;101773.69;5033606;28;20469;-55
2021/06/01 01:57:56;;;;;;;3.85;1.80;;;;;;;21.33;42.43;101768.53;5032674;28;20033;-55
2021/06/01 02:00:22;;;;;;;3.20;1.50;;;;;;;21.32;42.39;101764.19;5033254;28;20061;-56
2021/06/01 02:02:48;;;;;;;4.50;1.80;;;;;;;21.33;42.59;101770.31;5033508;28;20049;-55
2021/06/01 02:05:14;;;;;;;3.08;1.60;;;;;;;21.33;42.55;101776.47;5032170;28;20417;-54
2021/06/01 02:07:40;;;;;;;2.75;1.42;;;;;;;21.33;42.30;101778.25;5033298;28;20063;-54
2021/06/01 02:10:08;;;;;;;2.72;1.25;;;;;;;21.32;42.29;101777.44;5033005;28;20025;-56
2021/06/01 02:12:34;;;;;;;2.90;1.60;;;;;;;21.32;42.16;101772.13;5032631;28;20025;-55
2021/06/01 02:15:00;;;;;;;4.25;1.88;;;;;;;21.32;42.09;101768.66;5033442;28;20160;-56
2021/06/01 02:17:26;;;;;;;3.10;1.45;;;;;;;21.30;42.09;101771.41;5033025;28;20105;-56
2021/06/01 02:19:51;;;;;;;3.05;1.33;;;;;;;21.30;42.13;101768.75;5032359;28;20049;-55
2021/06/01 02:23:46;;;;;;;3.22;1.65;;;;;;;21.29;42.02;101772.38;5032771;28;20029;-55
2021/06/01 02:25:19;;;;;;;4.43;1.70;;;;;;;21.29;42.07;101771.53;5031827;28;20379;-56
2021/06/01 02:28:23;;;;;;;2.88;1.40;;;;;;;21.29;42.17;101769.72;5033154;28;20167;-54
2021/06/01 02:30:58;;;;;;;4.53;1.58;;;;;;;21.27;42.02;101765.50;5032993;28;20033;-55
2021/06/01 02:33:30;;;;;;;3.63;1.45;;;;;;;21.28;42.21;101761.91;5031915;28;20121;-54
2021/06/01 02:35:56;;;;;;;2.83;1.42;;;;;;;21.27;42.04;101774.31;5032947;28;20022;-57
2021/06/01 02:38:22;;;;;;;3.42;1.58;;;;;;;21.25;41.92;101762.97;5032421;28;20030;-54
2021/06/01 02:40:50;;;;;;;3.17;1.60;;;;;;;21.25;42.19;101762.13;5031987;28;20029;-56
2021/06/01 02:43:16;;;;;;;3.92;1.40;;;;;;;21.24;41.92;101760.44;5032338;28;20026;-56
2021/06/01 02:45:43;;;;;;;3.78;1.65;;;;;;;21.25;42.07;101765.63;5032727;28;20029;-55
2021/06/01 02:48:15;;;;;;;3.75;1.60;;;;;;;21.25;42.04;101765.63;5031426;28;20101;-55
2021/06/01 02:50:42;;;;;;;4.07;1.58;;;;;;;21.25;41.85;101762.13;5032587;28;20021;-56
2021/06/01 02:53:12;;;;;;;3.30;1.67;;;;;;;21.24;41.99;101763.94;5032076;28;20105;-56
2021/06/01 02:55:37;;;;;;;3.50;1.55;;;;;;;21.23;41.82;101762.25;5032512;28;20096;-55
2021/06/01 02:58:06;;;;;;;2.67;1.50;;;;;;;21.24;42.05;101766.59;5032108;28;20129;-55
2021/06/01 03:00:36;;;;;;;4.43;1.98;;;;;;;21.23;41.95;101764.91;5030392;28;20534;-55
2021/06/01 03:03:06;;;;;;;2.83;1.50;;;;;;;21.23;41.80;101756.13;5032182;28;20033;-54
2021/06/01 03:05:32;;;;;;;2.67;1.40;;;;;;;21.23;41.82;101766.72;5032059;28;20077;-57
2021/06/01 03:08:09;;;;;;;3.03;1.55;;;;;;;21.23;41.82;101769.38;5031675;28;20022;-55
2021/06/01 03:10:35;;;;;;;3.42;1.45;;;;;;;21.22;41.94;101768.53;5032349;28;20022;-55
2021/06/01 03:13:01;;;;;;;3.38;1.67;;;;;;;21.22;41.92;101767.69;5032438;28;20108;-55
2021/06/01 03:15:29;;;;;;;3.60;1.55;;;;;;;21.20;41.80;101765.16;5031071;28;20048;-55
2021/06/01 03:17:55;;;;;;;3.03;1.60;;;;;;;21.21;42.06;101774.81;5032070;28;20025;-54
2021/06/01 03:20:21;;;;;;;3.22;1.50;;;;;;;21.20;41.62;101768.66;5031900;28;20573;-55
2021/06/01 03:22:46;;;;;;;3.00;1.50;;;;;;;21.19;41.87;101769.63;5031283;28;20027;-56
2021/06/01 03:25:12;;;;;;;2.88;1.50;;;;;;;21.20;41.89;101765.16;5031573;28;20048;-57
2021/06/01 03:27:38;;;;;;;3.83;1.50;;;;;;;21.19;41.95;101774.09;5032051;28;20084;-55
2021/06/01 03:30:06;;;;;;;3.42;1.55;;;;;;;21.18;41.68;101778.53;5030760;28;20022;-55
2021/06/01 03:32:34;;;;;;;3.78;1.70;;;;;;;21.18;41.83;101770.56;5031805;28;20040;-56
2021/06/01 03:34:59;;;;;;;2.72;1.48;;;;;;;21.18;41.94;101772.41;5031952;28;20053;-55
2021/06/01 03:37:25;;;;;;;3.30;1.60;;;;;;;21.15;41.96;101770.81;5031167;28;20052;-55
2021/06/01 03:39:50;;;;;;;3.42;1.60;;;;;;;21.14;41.54;101770.94;5031951;28;20025;-55
2021/06/01 03:42:16;;;;;;;3.83;1.50;;;;;;;21.15;41.66;101772.63;5031747;28;20041;-56
2021/06/01 03:44:42;;;;;;;2.95;1.40;;;;;;;21.13;41.74;101772.75;5031123;28;20374;-57
2021/06/01 03:47:07;;;;;;;3.17;1.50;;;;;;;21.16;41.67;101777.81;5031573;28;20075;-55
2021/06/01 03:49:34;;;;;;;2.75;1.40;;;;;;;21.16;41.58;101780.47;5031030;28;20029;-55
2021/06/01 03:52:00;;;;;;;4.22;1.40;;;;;;;21.17;41.83;101776.00;5031750;28;20104;-55
2021/06/01 03:54:26;;;;;;;2.83;1.60;;;;;;;21.15;41.58;101773.47;5031447;28;20025;-56
2021/06/01 03:56:52;;;;;;;3.25;1.50;;;;;;;21.15;41.66;101770.81;5031218;28;20108;-55
2021/06/01 03:59:17;;;;;;;3.35;1.50;;;;;;;21.14;41.52;101771.81;5031475;28;20164;-54
2021/06/01 04:01:42;;;;;;;3.83;1.67;;;;;;;21.14;41.67;101774.44;5031627;28;20041;-55
2021/06/01 04:04:08;;;;;;;3.15;1.40;;;;;;;21.13;41.74;101772.75;5030516;28;20279;-55
2021/06/01 04:06:34;;;;;;;2.80;1.50;;;;;;;21.13;41.47;101771.94;5031243;28;20132;-56
2021/06/01 04:09:00;;;;;;;3.55;1.50;;;;;;;21.13;41.44;101770.09;5031866;28;20037;-54
2021/06/01 04:11:25;;;;;;;3.40;1.60;;;;;;;21.14;41.82;101773.59;5030652;28;20111;-56
2021/06/01 04:13:50;;;;;;;3.50;1.42;;;;;;;21.14;41.53;101779.75;5031668;28;20473;-56
2021/06/01 04:16:16;;;;;;;3.25;1.48;;;;;;;21.14;41.62;101773.59;5031264;28;20048;-55
2021/06/01 04:18:41;;;;;;;3.50;1.60;;;;;;;21.13;41.71;101778.06;5030848;28;20033;-55
2021/06/01 04:21:06;;;;;;;2.75;1.30;;;;;;;21.13;41.72;101778.06;5031091;28;20052;-55
2021/06/01 04:23:32;;;;;;;4.80;1.50;;;;;;;21.13;41.42;101777.22;5031388;28;20052;-57
2021/06/01 04:25:57;;;;;;;3.57;1.60;;;;;;;21.13;41.81;101769.28;5030828;28;20026;-55
2021/06/01 04:28:22;;;;;;;4.40;1.98;;;;;;;21.12;41.41;101776.38;5034697;28;20251;-56
2021/06/01 04:30:48;;;;;;;3.33;1.70;;;;;;;21.12;41.51;101768.41;5035467;28;20025;-56
2021/06/01 04:33:14;;;;;;;3.85;1.73;;;;;;;21.12;41.59;101771.06;5033895;28;20263;-56
2021/06/01 04:35:39;;;;;;;3.45;1.60;;;;;;;21.11;41.59;101774.69;5034944;28;20028;-56
2021/06/01 04:38:04;;;;;;;4.10;1.80;;;;;;;21.12;41.96;101772.88;5034699;28;20030;-55
2021/06/01 04:40:30;;;;;;;3.70;1.50;;;;;;;21.12;41.65;101772.88;5033902;28;20056;-54
2021/06/01 04:42:55;;;;;;;3.50;1.80;;;;;;;21.12;41.54;101770.22;5034899;28;20029;-54
2021/06/01 04:45:21;;;;;;;3.27;1.50;;;;;;;21.12;41.60;101775.53;5034701;28;20493;-56
2021/06/01 04:47:46;;;;;;;3.45;1.38;;;;;;;21.12;41.58;101762.28;5033948;28;20267;-55
2021/06/01 04:50:12;;;;;;;3.40;1.70;;;;;;;21.10;41.59;101761.56;5034707;28;20033;-56
2021/06/01 04:52:38;;;;;;;4.03;1.55;;;;;;;21.12;41.74;101772.88;5034828;28;20281;-56
2021/06/01 04:55:05;;;;;;;3.05;1.50;;;;;;;21.12;41.84;101772.88;5033885;28;20100;-56
2021/06/01 04:57:33;;;;;;;4.18;1.77;;;;;;;21.12;41.54;101770.22;5034703;28;20477;-58
2021/06/01 04:59:58;;;;;;;4.00;1.67;;;;;;;21.12;41.53;101771.06;5033897;28;20029;-56
2021/06/01 05:02:23;;;;;;;3.15;1.60;;;;;;;21.12;41.65;101767.56;5034250;28;20497;-58
2021/06/01 05:04:48;;;;;;;3.08;1.52;;;;;;;21.12;41.45;101765.75;5034339;28;20029;-56
2021/06/01 05:07:14;;;;;;;3.58;1.50;;;;;;;21.12;41.70;101770.22;5033138;28;20223;-56
2021/06/01 05:09:39;;;;;;;3.47;1.60;;;;;;;21.12;41.54;101767.56;5034496;28;20113;-56
2021/06/01 05:12:06;;;;;;;3.20;1.52;;;;;;;21.11;41.90;101771.19;5034306;28;20437;-56
2021/06/01 05:14:31;;;;;;;3.75;1.67;;;;;;;21.12;41.79;101767.56;5033635;28;20025;-55
2021/06/01 05:16:59;;;;;;;3.72;1.70;;;;;;;21.11;41.53;101772.03;5034180;28;20104;-55
2021/06/01 05:19:24;;;;;;;3.63;1.60;;;;;;;21.12;41.79;101768.41;5035017;28;20045;-55
2021/06/01 05:21:50;;;;;;;3.05;1.50;;;;;;;21.13;41.72;101769.28;5034842;28;20041;-56
2021/06/01 05:24:15;;;;;;;3.40;1.67;;;;;;;21.12;41.91;101757.81;5035666;28;20029;-55
2021/06/01 05:26:43;;;;;;;3.35;1.60;;;;;;;21.06;41.80;101747.72;5035904;28;20034;-56
2021/06/01 05:29:09;;;;;;;3.97;1.80;;;;;;;21.14;42.17;101763.00;5034754;28;20028;-56
2021/06/01 05:31:49;;;;;;;3.35;1.73;;;;;;;21.13;41.92;101758.66;5036011;28;20195;-57
2021/06/01 05:34:17;;;;;;;3.75;1.80;;;;;;;21.13;41.98;101764.81;5034865;28;20412;-54
2021/06/01 05:36:45;;;;;;;3.42;1.67;;;;;;;21.13;41.91;101761.31;5033583;28;20406;-56
2021/06/01 05:39:12;;;;;;;3.10;1.60;;;;;;;21.13;42.33;101756.03;5034301;28;20065;-56
2021/06/01 05:41:38;;;;;;;3.38;1.50;;;;;;;21.16;42.16;101764.56;5034528;28;20049;-56
2021/06/01 05:44:03;;;;;;;3.85;1.52;;;;;;;21.14;42.06;101755.03;5033328;28;20021;-55
2021/06/01 05:46:33;;;;;;;3.22;1.60;;;;;;;21.16;42.17;101761.91;5033990;28;20043;-57
2021/06/01 05:48:58;;;;;;;3.58;1.45;;;;;;;21.16;42.11;101750.47;5033828;28;20017;-56
2021/06/01 05:51:30;;;;;;;3.97;1.63;;;;;;;21.17;42.34;101758.31;5033781;28;20033;-56
2021/06/01 05:53:56;;;;;;;3.22;1.55;;;;;;;21.18;41.92;101756.50;5033570;28;20029;-56
2021/06/01 05:56:21;;;;;;;3.47;1.60;;;;;;;21.18;42.23;101757.31;5032689;28;20103;-56
2021/06/01 05:58:46;;;;;;;3.15;1.50;;;;;;;21.18;42.40;101756.50;5033575;28;20033;-57
2021/06/01 06:01:11;;;;;;;4.27;1.80;;;;;;;21.17;41.79;101753.00;5033470;28;20025;-56
2021/06/01 06:03:40;;;;;;;3.88;1.70;;;;;;;21.20;42.01;101758.06;5033595;28;20285;-57
2021/06/01 06:06:11;;;;;;;4.00;1.60;;;;;;;21.17;42.14;101753.00;5033332;28;20156;-54
2021/06/01 06:08:40;;;;;;;4.18;1.80;;;;;;;21.18;42.16;101757.31;5033714;28;20116;-56
2021/06/01 06:11:05;;;;;;;5.82;2.35;;;;;;;21.18;41.55;101757.31;5032526;28;20100;-56
2021/06/01 06:13:31;;;;;;;4.18;1.92;;;;;;;21.17;41.41;101758.31;5033408;28;20443;-56
2021/06/01 06:15:57;;;;;;;4.85;2.03;;;;;;;21.17;41.21;101763.59;5033279;28;20124;-55
2021/06/01 06:18:28;;;;;;;3.75;1.88;;;;;;;21.17;40.68;101760.09;5032203;28;20052;-58
2021/06/01 06:20:59;;;;;;;4.55;2.08;;;;;;;21.15;40.88;101752.25;5033398;28;20036;-56
2021/06/01 06:23:24;;;;;;;4.32;2.22;;;;;;;21.16;40.51;101758.44;5032928;28;20026;-57
2021/06/01 06:25:49;;;;;;;4.63;2.13;;;;;;;21.17;40.29;101758.31;5032348;28;20095;-56
2021/06/01 06:28:15;;;;;;;4.32;2.28;;;;;;;21.14;40.24;101747.94;5032518;28;20079;-56
2021/06/01 06:30:40;;;;;;;4.65;2.30;;;;;;;21.17;40.49;101747.72;5033513;28;20029;-57
2021/06/01 06:33:09;;;;;;;6.20;2.03;;;;;;;21.17;40.50;101753.00;5031999;28;20489;-54
2021/06/01 06:35:34;;;;;;;4.70;2.50;;;;;;;21.18;40.37;101751.19;5033041;28;20068;-57
2021/06/01 06:37:59;;;;;;;5.55;2.22;;;;;;;21.20;40.20;101751.91;5033145;28;20060;-57
2021/06/01 06:40:25;;;;;;;4.50;2.17;;;;;;;21.20;39.83;101752.75;5031962;28;20414;-57
2021/06/01 06:42:50;;;;;;;6.13;2.17;;;;;;;21.20;40.09;101755.41;5032955;28;20018;-54
2021/06/01 06:45:16;;;;;;;3.97;1.92;;;;;;;21.22;40.10;101757.06;5032098;28;20521;-54
2021/06/01 06:50:16;;;;;;;5.43;2.30;;;;;;;21.24;40.38;101756.00;5032066;28;20032;-56
2021/06/01 06:52:43;;;;;;;5.15;2.08;;;;;;;21.27;40.37;101755.75;5032442;28;20025;-56
2021/06/01 06:55:14;;;;;;;5.63;2.00;;;;;;;21.30;40.82;101755.50;5033260;28;20033;-58
2021/06/01 06:57:43;;;;;;;4.25;2.20;;;;;;;21.30;40.58;101752.00;5033733;28;20049;-57
2021/06/01 07:00:14;;;;;;;3.85;1.95;;;;;;;21.30;40.05;101757.31;5032350;28;20484;-58
2021/06/01 07:02:41;;;;;;;6.35;2.28;;;;;;;21.30;39.82;101752.00;5033334;28;20028;-58
2021/06/01 07:05:08;;;;;;;4.18;2.13;;;;;;;21.29;39.79;101753.81;5032095;28;20069;-58
2021/06/01 07:07:33;;;;;;;4.65;2.40;;;;;;;21.29;39.71;101753.81;5032014;28;20025;-58
2021/06/01 07:09:58;;;;;;;4.32;2.25;;;;;;;21.30;39.59;101754.66;5032685;28;20036;-57
2021/06/01 07:12:23;;;;;;;4.47;1.90;;;;;;;21.30;40.08;101752.00;5033592;28;20492;-57
2021/06/01 07:14:51;;;;;;;5.57;2.13;;;;;;;21.32;39.85;101752.75;5033573;28;20067;-58
2021/06/01 07:17:17;;;;;;;5.28;2.30;;;;;;;21.32;39.78;101755.38;5032633;28;20108;-57
2021/06/01 07:19:46;;;;;;;4.78;1.85;;;;;;;21.31;40.03;101757.19;5032275;28;20596;-57
2021/06/01 07:22:11;;;;;;;7.85;2.15;;;;;;;21.27;39.58;101755.75;5031305;28;20025;-59
2021/06/01 07:24:37;;;;;;;3.80;1.90;;;;;;;21.29;40.05;101756.47;5032442;28;20036;-58
2021/06/01 07:27:02;;;;;;;3.50;1.95;;;;;;;21.30;39.69;101749.34;5032451;28;20033;-59
2021/06/01 07:29:28;;;;;;;5.18;2.28;;;;;;;21.30;39.77;101744.91;5032101;28;20021;-58
2021/06/01 07:31:56;;;;;;;7.55;2.08;;;;;;;21.33;39.71;101749.97;5032579;28;20018;-60
2021/06/01 07:34:21;;;;;;;5.13;2.17;;;;;;;21.35;40.22;101749.84;5032316;28;20524;-60
2021/06/01 07:36:47;;;;;;;5.20;2.30;;;;;;;21.33;39.97;101741.16;5031414;28;20416;-55
2021/06/01 07:39:12;;;;;;;4.50;2.58;;;;;;;21.32;40.37;101745.63;5031624;28;20387;-55
2021/06/01 07:41:38;;;;;;;4.03;2.23;;;;;;;21.35;40.08;101742.72;5031404;28;20021;-58
2021/06/01 07:44:05;;;;;;;5.35;2.60;;;;;;;21.37;39.78;101742.59;5032405;28;20356;-57
2021/06/01 07:46:31;;;;;;;4.57;2.50;;;;;;;21.35;40.06;101740.06;5032333;28;20057;-59
2021/06/01 07:48:59;;;;;;;5.10;2.50;;;;;;;21.41;39.93;101748.47;5031566;28;20052;-57
2021/06/01 07:51:28;;;;;;;5.15;2.53;;;;;;;21.42;40.08;101745.72;5031704;28;20053;-56
2021/06/01 07:54:04;;;;;;;4.75;2.72;;;;;;;21.44;40.06;101745.59;5032001;28;20110;-57
2021/06/01 07:56:31;;;;;;;4.07;2.30;;;;;;;21.40;39.84;101731.75;5031532;28;20022;-57
2021/06/01 07:58:57;;;;;;;4.93;2.55;;;;;;;21.45;39.50;101737.50;5031974;28;20021;-57
2021/06/01 08:01:25;;;;;;;5.07;2.20;;;;;;;21.46;39.43;101744.50;5034301;28;20085;-57
2021/06/01 08:03:51;;;;;;;7.40;2.28;;;;;;;21.43;38.61;101735.94;5035193;28;20029;-58
2021/06/01 08:06:17;;;;;;;3.90;2.20;;;;;;;21.46;38.90;101741.00;5035224;28;20357;-59
2021/06/01 08:08:42;;;;;;;5.70;2.30;;;;;;;21.46;39.69;101731.25;5035978;28;20022;-59
2021/06/01 08:11:08;;;;;;;4.45;2.00;;;;;;;21.50;39.27;101729.22;5035023;28;20018;-59
2021/06/01 08:13:33;;;;;;;4.43;2.00;;;;;;;21.55;38.99;101733.19;5035922;28;20143;-59
2021/06/01 08:16:01;;;;;;;3.33;1.70;;;;;;;21.58;38.92;101721.47;5035724;28;20492;-58
2021/06/01 08:18:28;;;;;;;3.40;1.90;;;;;;;21.61;38.71;101717.72;5034879;28;20034;-58
2021/06/01 08:20:58;;;;;;;5.10;2.33;;;;;;;21.60;38.65;101713.38;5035679;28;20048;-58
2021/06/01 08:23:24;;;;;;;4.60;2.22;;;;;;;21.57;38.39;101711.84;5035480;28;20033;-59
2021/06/01 08:25:49;;;;;;;3.10;1.70;;;;;;;21.56;38.55;101718.94;5034711;28;20378;-58
2021/06/01 08:28:15;;;;;;;3.78;2.05;;;;;;;21.55;38.63;101714.63;5035220;28;20456;-59
2021/06/01 08:30:40;;;;;;;5.03;2.20;;;;;;;21.53;38.45;101711.22;5035500;28;20029;-57
2021/06/01 08:33:08;;;;;;;5.15;2.13;;;;;;;21.51;39.03;101702.56;5034266;28;20030;-55
2021/06/01 08:35:33;;;;;;;3.80;1.75;;;;;;;21.53;39.25;101707.75;5035504;28;20072;-58
2021/06/01 08:37:59;;;;;;;6.10;2.05;;;;;;;21.54;38.28;101707.63;5034796;28;20033;-58
2021/06/01 08:40:24;;;;;;;4.05;1.90;;;;;;;21.54;37.97;101704.13;5035052;28;20052;-58
2021/06/01 08:42:51;;;;;;;4.22;1.75;;;;;;;21.54;37.37;101704.97;5035291;28;20033;-59
2021/06/01 08:45:17;;;;;;;3.35;2.00;;;;;;;21.55;38.13;101700.50;5033974;28;20059;-59
2021/06/01 08:47:42;;;;;;;4.75;2.00;;;;;;;21.56;38.48;101703.03;5034949;28;20434;-57
2021/06/01 08:50:10;;;;;;;5.90;1.90;;;;;;;21.56;39.04;101691.56;5034619;28;20021;-57
2021/06/01 08:52:36;;;;;;;3.45;1.70;;;;;;;21.55;39.39;101688.09;5033993;28;20030;-58
2021/06/01 08:55:02;;;;;;;4.55;1.90;;;;;;;21.58;39.45;101683.50;5034431;28;20028;-59
2021/06/01 08:57:27;;;;;;;3.60;1.80;;;;;;;21.59;39.68;101696.63;5034344;28;20057;-59
2021/06/01 08:59:52;;;;;;;4.10;1.85;;;;;;;21.59;39.23;101685.16;5034310;28;20032;-59
2021/06/01 09:02:22;;;;;;;2.92;1.60;;;;;;;21.63;37.72;101687.44;5034851;28;20029;-60
2021/06/01 09:04:58;;;;;;;3.83;1.80;;;;;;;21.65;38.62;101677.56;5035199;28;20056;-59
2021/06/01 09:07:31;;;;;;;4.30;1.67;;;;;;;21.69;38.96;101681.63;5033669;28;20128;-59
2021/06/01 09:19:58;;;;;;;4.03;2.00;;;;;;;21.72;39.29;101686.66;5034607;28;20508;-57
2021/06/01 09:21:28;;;;;;;4.07;1.90;;;;;;;21.72;38.21;101691.97;5033401;28;20048;-58
2021/06/01 09:23:57;;;;;;;4.03;1.80;;;;;;;21.73;38.18;101687.53;5034572;28;20068;-58
2021/06/01 09:27:06;;;;;;;4.68;1.95;;;;;;;21.73;38.27;101687.53;5034127;28;20104;-59
2021/06/01 09:29:34;;;;;;;3.08;1.80;;;;;;;21.73;38.45;101676.91;5033608;28;20061;-57
2021/06/01 09:32:05;;;;;;;2.97;1.70;;;;;;;21.73;38.07;101682.22;5034385;28;20060;-59
2021/06/01 09:34:45;;;;;;;4.75;1.77;;;;;;;21.73;38.18;101676.91;5033547;28;20036;-59
2021/06/01 09:37:18;;;;;;;4.20;1.77;;;;;;;21.72;38.54;101673.41;5033892;28;20370;-58
2021/06/01 09:39:44;;;;;;;4.25;1.98;;;;;;;21.72;38.59;101676.06;5033930;28;20026;-58
2021/06/01 09:42:26;;;;;;;3.30;1.52;;;;;;;21.70;38.71;101674.53;5033044;28;20076;-58
2021/06/01 09:46:06;;;;;;;3.80;1.70;;;;;;;21.72;39.17;101664.63;5034203;28;20044;-60
2021/06/01 09:48:12;;;;;;;3.63;1.70;;;;;;;21.73;39.30;101668.97;5021674;28;20098;-58
2021/06/01 09:50:53;;;;;;;3.25;1.60;;;;;;;21.70;38.94;101672.69;5034174;28;20435;-60
2021/06/01 09:53:28;;;;;;;4.95;1.90;;;;;;;21.69;38.18;101657.75;5033548;28;20108;-58
2021/06/01 09:55:55;;;;;;;3.70;1.90;;;;;;;21.74;37.59;101662.66;5033174;28;20014;-58
2021/06/01 09:58:29;;;;;;;5.25;2.08;;;;;;;21.77;36.39;101664.22;5033355;28;20036;-56
2021/06/01 10:00:55;;;;;;;;;;;;;;;21.78;36.15;101658.81;5034178;28;20025;-58
2021/06/01 10:03:23;;;;;;;5.20;1.60;;;;;;;21.80;36.79;101646.25;5032900;28;19920;-58
2021/06/01 10:05:51;;;;;;;6.40;2.05;;;;;;;21.82;37.03;101640.81;5033469;28;20042;-57
2021/06/01 10:08:17;;;;;;;6.53;1.67;;;;;;;21.83;37.41;101645.16;5033731;28;20064;-62
2021/06/01 10:10:54;;;;;;;6.95;2.00;;;;;;;21.86;37.85;101642.25;5034591;28;20535;-59
2021/06/01 10:13:22;;;;;;;3.40;1.70;;;;;;;21.88;38.56;101649.06;5033668;28;20079;-59
2021/06/01 10:15:50;;;;;;;3.22;1.75;;;;;;;21.91;38.68;101645.34;5034767;28;20033;-58
2021/06/01 10:18:17;;;;;;;6.55;1.70;;;;;;;21.93;38.95;101640.72;5033263;28;20398;-59
2021/06/01 10:20:45;;;;;;;4.18;1.50;;;;;;;21.96;39.38;101644.94;5035333;28;20025;-58
2021/06/01 10:23:11;;;;;;;3.50;1.80;;;;;;;21.98;39.55;101650.94;5034702;28;20037;-58
2021/06/01 10:25:38;;;;;;;4.18;1.80;;;;;;;21.99;39.43;101640.22;5033549;28;20040;-57
2021/06/01 10:28:07;;;;;;;3.65;1.85;;;;;;;22.00;39.73;101635.72;5033543;28;20028;-59
2021/06/01 10:30:43;;;;;;;3.97;1.60;;;;;;;22.01;39.67;101632.94;5036578;28;20033;-60
2021/06/01 10:33:14;;;;;;;4.03;1.58;;;;;;;22.00;39.96;101623.31;5033481;28;20018;-58
2021/06/01 10:35:46;;;;;;;3.55;1.80;;;;;;;22.05;40.12;101633.53;5035698;28;20022;-59
2021/06/01 10:52:12;;;;;;;5.05;1.65;;;;;;;21.99;40.29;101615.50;5032338;28;20125;-57
2021/06/01 10:55:01;;;;;;;4.75;1.83;;;;;;;21.98;40.21;101609.31;5033022;28;20025;-56
2021/06/01 10:57:55;;;;;;;3.80;1.85;;;;;;;21.99;40.52;101600.41;5035372;28;20033;-57
2021/06/01 11:03:07;;;;;;;3.13;1.50;;;;;;;22.01;40.33;101601.09;5032881;28;20032;-58
2021/06/01 11:05:55;;;;;;;3.65;1.70;;;;;;;22.01;40.36;101597.63;5031667;28;20049;-57
2021/06/01 11:08:34;;;;;;;3.47;1.40;;;;;;;22.00;40.20;101590.63;5032163;28;20381;-57
2021/06/01 11:11:24;;;;;;;4.20;1.63;;;;;;;22.00;39.89;101595.91;5032517;28;20115;-57
2021/06/01 11:13:50;;;;;;;3.92;1.50;;;;;;;21.98;40.18;101598.72;5031482;28;20029;-57
2021/06/01 11:16:16;;;;;;;6.93;1.92;;;;;;;22.00;40.28;101596.78;5031433;28;20155;-57
2021/06/01 11:18:46;;;;;;;3.45;1.75;;;;;;;22.04;39.67;101595.53;5031881;28;20414;-56
2021/06/01 11:21:20;;;;;;;3.28;1.67;;;;;;;22.07;39.15;101584.66;5030899;28;20028;-57
2021/06/01 11:24:10;;;;;;;4.88;1.63;;;;;;;22.09;38.79;101579.22;5031806;28;20476;-55
2021/06/01 11:35:21;;;;;;;4.75;1.90;;;;;;;22.05;38.83;101572.50;5030573;28;20338;-57
2021/06/01 11:37:57;;;;;;;3.83;1.90;;;;;;;22.05;38.89;101573.34;5031797;28;20021;-57
2021/06/01 11:42:46;;;;;;;4.80;1.70;;;;;;;22.05;38.94;101569.84;5031538;28;20045;-57
2021/06/01 11:43:18;;;;;;;;;;;;;;;22.03;38.84;101572.63;5026942;28;20057;-57
2021/06/01 11:54:11;;;;;;;3.13;1.40;;;;;;;22.03;39.76;101569.13;4989952;28;20114;-57
2021/06/01 11:56:54;;;;;;;3.70;1.80;;;;;;;22.02;39.66;101562.97;5024236;28;20045;-57
2021/06/01 12:05:01;;;;;;;4.40;1.40;;;;;;;22.07;40.17;101562.59;5031771;28;20489;-55
2021/06/01 12:18:42;;;;;;;4.10;1.60;;;;;;;22.05;40.31;101541.47;5031905;28;20037;-58
2021/06/01 12:21:11;;;;;;;3.45;1.55;;;;;;;22.02;40.11;101549.72;5031321;28;20079;-59
2021/06/01 12:23:39;;;;;;;3.35;1.70;;;;;;;22.01;39.89;101542.72;5031094;28;20108;-57
2021/06/01 12:32:01;;;;;;;3.38;1.55;;;;;;;21.98;40.00;101550.09;5030745;28;20028;-56
2021/06/01 13:12:12;;;;;;;2.60;1.40;;;;;;;22.02;40.38;101493.97;5032143;28;20457;-56
2021/06/01 13:47:54;;;;;;;2.75;1.63;;;;;;;22.15;41.05;101463.69;5033020;28;20052;-57
2021/06/01 13:50:27;;;;;;;5.47;2.63;;;;;;;22.15;41.31;101455.75;5033794;28;20361;-57
2021/06/01 13:55:45;;;;;;;6.22;2.83;;;;;;;22.17;41.15;101448.47;5002127;28;20036;-55
2021/06/01 14:01:29;;;;;;;4.18;2.25;;;;;;;22.19;40.86;101449.16;4991852;28;20026;-56